Terminal Aerodrome Forecast
Issued by NWS

Home | Current Version | Previous Version | Text Only | Print | Product List | Glossary On
Versions: 1 2 3 4 5 6 7 8 9 10 11 12 13 14 15 16 17 18
000
FTUS41 KBGM 271200 AAA
TAFITH
TAF AMD
KITH 271232Z 2713/2812 28005KT P6SM SCT025 BKN040
      TEMPO 2713/2716 BKN025 OVC040
     FM271600 29006KT P6SM BKN040
     FM280000 29006KT P6SM FEW060=

USA.gov is the U.S. government's official web portal to all federal, state and local government web resources and services.